Latest Weather Observations for Double Island Point

IDQ60901

Issued at 9:21 am EST Tuesday 14 July 2020 (issued every 10 minutes, with the page automatically refreshed every 10 minutes)

About weather observations | Map of Brisbane area stations | Latest observations for Brisbane area | Other Formats
Station Details ID: 040068 Name: DOUBLE ISLAND POINT LIGHTHOUSE Lat: -25.93 Lon: 153.19 Height: 95.64 m
Data from the previous 72 hours. | See also: Recent months at Double Island Point
Date/Time
EST
Temp
°C
App
Temp
°C
Dew
Point
°C
Rel
Hum
%
Delta-T
°C
Wind Press
QNH
hPa
Press
MSL
hPa
Rain since
9am
mm
Dir  Spd
km/h
Gust
km/h
Spd
kts
Gust
kts
14/09:00am 11.7 8.7 4.2 60 3.4 W 9 20 5 11 1019.3 1019.1 0.4
14/08:30am 11.6 7.7 5.5 66 2.8 NW 15 26 8 14 1019.3 1019.1 0.4
14/08:00am 11.0 6.1 4.2 63 3.0 NW 19 24 10 13 1019.2 1019.0 0.4
14/07:30am 10.3 6.1 3.8 64 2.9 W 15 20 8 11 1019.1 1018.9 0.4
14/07:00am 10.1 5.1 3.4 63 2.9 W 19 28 10 15 1019.1 1018.9 0.4
14/06:30am 10.1 4.9 3.4 63 2.9 W 20 30 11 16 1018.4 1018.2 0.4
14/06:00am 10.1 5.8 3.4 63 2.9 W 15 24 8 13 1018.2 1018.0 0.4
14/05:30am 10.5 6.2 3.5 62 3.1 W 15 24 8 13 1017.9 1017.7 0.4
14/05:00am 10.9 6.0 3.9 62 3.1 W 19 28 10 15 1017.7 1017.5 0.4
14/04:30am 11.1 5.5 3.6 60 3.3 W 22 35 12 19 1017.5 1017.3 0.4
14/04:00am 11.2 5.6 3.5 59 3.4 W 22 33 12 18 1017.7 1017.5 0.4
14/03:30am 11.3 6.2 3.3 58 3.5 W 19 30 10 16 1017.9 1017.7 0.4
14/03:00am 11.5 6.4 3.0 56 3.7 WSW 19 26 10 14 1017.9 1017.7 0.4
14/02:30am 11.9 6.8 2.9 54 4.0 WSW 19 26 10 14 1018.0 1017.8 0.4
14/02:00am 12.2 7.1 2.9 53 4.1 WSW 19 26 10 14 1018.4 1018.2 0.4
14/01:30am 12.2 6.6 3.4 55 3.9 WSW 22 28 12 15 1018.5 1018.3 0.4
14/01:00am 12.3 6.3 3.3 54 4.0 SW 24 28 13 15 1018.6 1018.4 0.4
14/12:30am 12.9 5.7 3.0 51 4.4 SW 30 41 16 22 1018.6 1018.4 0.4
14/12:00am 12.9 6.2 3.8 54 4.1 SW 28 39 15 21 1018.7 1018.5 0.4
 
Date/Time
EST
Temp
°C
App
Temp
°C
Dew
Point
°C
Rel
Hum
%
Delta-T
°C
Wind Press
QNH
hPa
Press
MSL
hPa
Rain since
9am
mm
Dir  Spd
km/h
Gust
km/h
Spd
kts
Gust
kts
13/11:30pm 13.2 7.3 3.8 53 4.3 WSW 24 32 13 17 1019.0 1018.8 0.4
13/11:00pm 13.6 8.0 3.7 51 4.5 SW 22 30 12 16 1019.2 1019.0 0.4
13/10:30pm 14.0 9.0 3.8 50 4.7 SW 19 24 10 13 1019.2 1019.0 0.4
13/10:00pm 14.4 8.4 3.2 47 5.1 SW 24 35 13 19 1019.0 1018.8 0.4
13/09:30pm 14.9 7.4 3.4 46 5.2 SW 32 43 17 23 1018.7 1018.5 0.4
13/09:00pm 15.5 7.8 3.6 45 5.5 SW 33 41 18 22 1018.5 1018.3 0.4
13/08:30pm 15.6 8.0 4.0 46 5.4 SW 33 44 18 24 1018.4 1018.2 0.4
13/08:00pm 16.2 8.8 3.9 44 5.7 SW 32 41 17 22 1018.2 1018.0 0.4
13/07:30pm 16.0 9.9 5.0 48 5.2 SW 26 32 14 17 1018.0 1017.8 0.4
13/07:00pm 16.9 11.4 5.8 48 5.4 WSW 24 32 13 17 1017.8 1017.6 0.4
13/06:30pm 17.6 14.3 9.5 59 4.3 W 17 19 9 10 1017.5 1017.3 0.4
13/06:00pm 18.2 15.1 9.0 55 4.8 W 15 17 8 9 1017.1 1016.9 0.4
13/05:30pm 18.2 14.6 8.2 52 5.2 WSW 17 19 9 10 1016.7 1016.5 0.4
13/05:00pm 18.7 15.5 8.4 51 5.3 WSW 15 19 8 10 1016.3 1016.1 0.4
13/04:30pm 19.3 15.8 8.9 51 5.5 SW 17 20 9 11 1016.0 1015.8 0.4
13/04:00pm 20.2 17.1 8.8 48 6.0 WSW 15 22 8 12 1015.8 1015.6 0.4
13/03:30pm 20.8 19.6 11.7 56 5.1 SW 9 11 5 6 1015.6 1015.4 0.4
13/03:00pm 19.7 17.5 10.9 57 4.8 SSW 13 19 7 10 1015.4 1015.2 0.4
13/02:30pm 20.1 18.1 11.6 58 4.7 WSW 13 20 7 11 1015.3 1015.1 0.4
13/02:00pm 19.6 18.6 12.4 63 4.0 S 9 15 5 8 1015.4 1015.2 0.4
13/01:30pm 19.4 19.0 13.1 67 3.6 SSW 7 11 4 6 1015.6 1015.4 0.4
13/01:00pm 18.7 17.4 12.5 67 3.5 SSW 11 19 6 10 1015.6 1015.4 0.2
13/12:30pm 18.1 15.7 12.8 71 3.0 SW 17 22 9 12 1015.8 1015.6 0.2
13/12:00pm 17.8 15.5 13.1 74 2.6 SSW 17 24 9 13 1016.3 1016.1 0.2
13/11:30am 17.1 14.3 13.2 78 2.2 SSW 20 28 11 15 1016.5 1016.3 0.2
13/11:00am 16.3 13.9 13.8 85 1.4 SW 19 26 10 14 1016.8 1016.6 0.2
13/10:30am 16.1 14.2 15.3 95 0.5 SSW 19 24 10 13 1017.0 1016.8 0.2
13/10:00am 15.6 14.9 15.4 99 0.1 SSW 13 15 7 8 1017.3 1017.1 0.2
13/09:30am 15.3 14.9 15.1 99 0.1 SW 11 15 6 8 1017.6 1017.4 0.2
13/09:00am 15.2 14.4 15.0 99 0.1 SW 13 19 7 10 1017.6 1017.4 3.8
13/08:30am 14.9 13.9 14.7 99 0.1 SSW 13 15 7 8 1017.3 1017.1 3.2
13/08:00am 15.2 14.0 15.0 99 0.1 SW 15 19 8 10 1017.0 1016.8 2.2
13/07:30am 15.2 13.6 15.0 99 0.1 SSW 17 20 9 11 1016.8 1016.6 1.6
13/07:00am 15.2 13.0 14.9 98 0.2 SSW 20 26 11 14 1016.5 1016.3 1.0
13/06:30am 15.5 12.5 14.7 95 0.5 SSW 24 30 13 16 1016.2 1016.0 0.6
13/06:00am 15.9 13.9 15.4 97 0.3 SSW 20 24 11 13 1015.8 1015.6 0.6
13/05:30am 16.2 14.9 15.9 98 0.2 S 17 20 9 11 1015.8 1015.6 0.6
13/05:00am 15.7 14.6 15.4 98 0.2 SSW 15 22 8 12 1015.5 1015.3 0.6
13/04:30am 15.9 13.6 15.7 99 0.1 S 22 28 12 15 1015.5 1015.3 0.6
13/04:00am 15.6 12.8 15.3 98 0.2 SSW 24 30 13 16 1015.7 1015.5 0.6
13/03:30am 15.7 13.5 14.9 95 0.5 SSW 20 24 11 13 1015.9 1015.7 0.0
13/03:00am 16.2 14.9 15.7 97 0.3 SSW 17 24 9 13 1015.6 1015.4 0.0
13/02:30am 16.3 15.3 15.5 95 0.5 SSW 15 20 8 11 1015.6 1015.4 0.0
13/02:00am 16.6 14.2 15.3 92 0.8 WSW 22 32 12 17 1015.6 1015.4 0.0
13/01:30am 17.5 16.4 15.3 87 1.3 SW 15 20 8 11 1015.8 1015.6 0.0
13/01:00am 18.0 18.1 15.6 86 1.4 SSW 9 15 5 8 1016.0 1015.8 0.0
13/12:30am 18.0 18.3 16.0 88 1.2 SSW 9 15 5 8 1016.3 1016.1 0.0
13/12:00am 18.1 17.4 16.3 89 1.1 SSW 15 20 8 11 1016.3 1016.1 0.0
 
Date/Time
EST
Temp
°C
App
Temp
°C
Dew
Point
°C
Rel
Hum
%
Delta-T
°C
Wind Press
QNH
hPa
Press
MSL
hPa
Rain since
9am
mm
Dir  Spd
km/h
Gust
km/h
Spd
kts
Gust
kts
12/11:30pm 18.2 17.2 16.7 91 0.9 SSW 17 20 9 11 1016.5 1016.3 0.0
12/11:00pm 18.4 17.0 16.9 91 0.9 S 20 26 11 14 1016.6 1016.4 0.0
12/10:30pm 18.8 18.7 16.9 89 1.2 SSW 13 17 7 9 1016.7 1016.5 0.0
12/10:00pm 18.7 18.8 15.4 81 1.9 NW 9 13 5 7 1016.8 1016.6 0.0
12/09:30pm 19.2 19.2 15.3 78 2.3 W 9 15 5 8 1016.7 1016.5 0.0
12/09:00pm 19.5 17.3 15.0 75 2.6 NW 20 26 11 14 1016.8 1016.6 0.0
12/08:30pm 19.7 17.6 14.7 73 2.9 NW 19 24 10 13 1016.7 1016.5 0.0
12/08:00pm 19.7 17.3 14.5 72 3.0 NW 20 24 11 13 1016.5 1016.3 0.0
12/07:30pm 19.7 18.6 15.4 76 2.5 NNW 15 17 8 9 1016.2 1016.0 0.0
12/07:00pm 20.3 20.1 17.5 84 1.7 NNE 15 19 8 10 1015.7 1015.5 0.0
12/06:30pm 20.3 20.7 17.3 83 1.8 NNE 11 15 6 8 1015.2 1015.0 0.0
12/06:00pm 20.4 21.0 17.8 85 1.6 NE 11 19 6 10 1014.8 1014.6 0.0
12/05:30pm 20.4 19.8 16.6 79 2.3 NNE 15 20 8 11 1015.0 1014.8 0.0
12/05:00pm 21.0 20.8 16.6 76 2.7 NNE 13 19 7 10 1014.7 1014.5 0.0
12/04:30pm 22.3 21.2 17.2 73 3.1 NNE 19 22 10 12 1014.5 1014.3 0.0
12/04:00pm 23.1 23.5 17.3 70 3.6 NNE 11 17 6 9 1014.5 1014.3 0.0
12/03:30pm 23.6 23.9 16.9 66 4.1 NNE 11 19 6 10 1014.5 1014.3 0.0
12/03:00pm 24.7 25.1 18.2 67 4.1 NNE 13 17 7 9 1014.5 1014.3 0.0
12/02:30pm 25.5 26.7 18.2 64 4.6 N 9 15 5 8 1014.5 1014.3 0.0
12/02:00pm 24.8 25.8 17.8 65 4.4 N 9 15 5 8 1014.6 1014.4 0.0
12/01:30pm 24.0 23.8 17.5 67 4.1 N 15 20 8 11 1014.7 1014.5 0.0
12/01:00pm 23.8 22.8 17.5 68 3.9 NNW 19 24 10 13 1014.8 1014.6 0.0
12/12:30pm 23.8 23.8 18.0 70 3.6 N 15 22 8 12 1015.0 1014.8 0.0
12/12:00pm 22.7 22.3 17.2 71 3.4 NNW 15 20 8 11 1015.4 1015.2 0.0
12/11:30am 22.5 22.6 17.4 73 3.2 NNW 13 20 7 11 1015.7 1015.5 0.0
12/11:00am 21.6 21.8 17.6 78 2.5 NNW 13 22 7 12 1016.2 1016.0 0.0
12/10:30am 20.5 20.1 17.1 81 2.1 NW 15 22 8 12 1016.5 1016.3 0.0
12/10:00am 19.8 18.8 17.6 87 1.4 NW 19 24 10 13 1016.7 1016.5 0.0
12/09:30am 18.8 17.4 16.9 89 1.2 NW 20 24 11 13 1016.6 1016.4 0.0
12/09:00am 18.5 16.9 16.5 88 1.2 NW 20 26 11 14 1016.8 1016.6 0.0
12/08:30am 19.0 17.7 16.8 87 1.3 NNW 19 22 10 12 1017.0 1016.8 0.0
12/08:00am 18.8 17.9 16.9 89 1.1 NNW 17 20 9 11 1016.8 1016.6 0.0
12/07:30am 17.8 16.9 16.8 94 0.6 WNW 17 20 9 11 1016.6 1016.4 0.0
12/07:00am 17.8 17.1 17.3 97 0.3 NW 17 20 9 11 1016.4 1016.2 0.0
12/06:30am 17.6 16.9 17.4 99 0.1 NW 17 19 9 10 1016.1 1015.9 0.0
12/06:00am 17.6 17.3 17.4 99 0.1 NW 15 17 8 9 1015.7 1015.5 0.0
12/05:30am 17.6 17.3 17.3 98 0.2 NW 15 17 8 9 1015.5 1015.3 0.0
12/05:00am 17.8 17.2 17.5 98 0.2 NW 17 20 9 11 1015.5 1015.3 0.0
12/04:30am 17.5 16.7 17.0 97 0.3 NW 17 19 9 10 1015.4 1015.2 0.0
12/04:00am 17.6 16.3 16.8 95 0.5 NW 19 20 10 11 1015.5 1015.3 0.0
12/03:30am 17.8 16.5 16.8 94 0.6 NW 19 22 10 12 1015.7 1015.5 0.0
12/03:00am 18.1 17.5 17.5 96 0.4 NW 17 20 9 11 1015.9 1015.7 0.0
12/02:30am 18.1 17.5 17.5 96 0.4 NW 17 19 9 10 1015.9 1015.7 0.0
12/02:00am 18.4 17.7 17.4 94 0.6 NW 17 20 9 11 1016.0 1015.8 0.0
12/01:30am 18.9 21.0 17.2 90 1.0 N 2 7 1 4 1016.4 1016.2 0.0
12/01:00am 19.0 20.6 17.0 88 1.2 N 4 9 2 5 1016.9 1016.7 0.0
12/12:30am 19.0 19.9 16.6 86 1.4 N 7 11 4 6 1017.2 1017.0 0.0
12/12:00am 19.2 18.7 16.8 86 1.5 N 15 30 8 16 1017.3 1017.1 0.0
 
Date/Time
EST
Temp
°C
App
Temp
°C
Dew
Point
°C
Rel
Hum
%
Delta-T
°C
Wind Press
QNH
hPa
Press
MSL
hPa
Rain since
9am
mm
Dir  Spd
km/h
Gust
km/h
Spd
kts
Gust
kts
11/11:30pm 19.3 17.8 16.7 85 1.6 N 20 35 11 19 1017.5 1017.3 0.0
11/11:00pm 19.4 19.6 15.7 79 2.2 N 9 17 5 9 1017.8 1017.6 0.0
11/10:30pm 19.5 18.7 16.0 80 2.1 N 15 26 8 14 1017.8 1017.6 0.0
11/10:00pm 19.4 17.9 16.2 82 1.9 NNE 19 26 10 14 1017.9 1017.7 0.0
11/09:30pm 19.3 17.6 16.3 83 1.8 NNE 20 22 11 12 1018.0 1017.8 0.0
11/09:00pm 19.0 17.8 16.2 84 1.7 NNE 17 20 9 11 1018.1 1017.9 0.0
11/08:30pm 18.9 18.5 16.1 84 1.7 NE 13 17 7 9 1018.2 1018.0 0.0
11/08:00pm 18.8 18.3 15.9 83 1.7 NE 13 17 7 9 1018.2 1018.0 0.0
11/07:30pm 19.0 19.3 15.9 82 1.8 NE 9 15 5 8 1018.3 1018.1 0.0
11/07:00pm 19.1 18.6 16.0 82 1.8 NE 13 17 7 9 1018.2 1018.0 0.0
11/06:30pm 19.1 18.9 15.8 81 2.0 ENE 11 15 6 8 1018.1 1017.9 0.0
11/06:00pm 19.1 18.9 15.6 80 2.1 ENE 11 17 6 9 1017.9 1017.7 0.0
11/05:30pm 19.2 18.6 15.7 80 2.1 ENE 13 15 7 8 1017.6 1017.4 0.0
11/05:00pm 19.5 19.3 15.8 79 2.2 ENE 11 15 6 8 1017.5 1017.3 0.0
11/04:30pm 19.8 20.0 15.7 77 2.4 ENE 9 11 5 6 1017.4 1017.2 0.0
11/04:00pm 20.1 20.0 16.1 78 2.4 ENE 11 13 6 7 1017.4 1017.2 0.0
11/03:30pm 20.1 20.4 15.9 77 2.5 ENE 9 11 5 6 1017.5 1017.3 0.0
11/03:00pm 20.4 20.9 15.6 74 2.9 ENE 7 11 4 6 1017.6 1017.4 0.0
11/02:30pm 20.4 20.9 15.6 74 2.9 ENE 7 9 4 5 1017.6 1017.4 0.0
11/02:00pm 20.5 21.1 15.7 74 2.9 ENE 7 9 4 5 1017.8 1017.6 0.0
11/01:30pm 20.6 20.9 16.0 75 2.8 ENE 9 13 5 7 1018.0 1017.8 0.0
11/01:00pm 20.5 20.9 16.3 77 2.5 ENE 9 11 5 6 1018.3 1018.1 0.0
11/12:30pm 20.4 20.8 16.4 78 2.4 ENE 9 11 5 6 1018.7 1018.5 0.0
11/12:00pm 20.5 21.5 16.9 80 2.2 ENE 7 11 4 6 1019.2 1019.0 0.0
11/11:30am 20.5 21.1 16.9 80 2.2 ENE 9 11 5 6 1019.7 1019.6 0.0
11/11:00am 20.5 21.2 17.1 81 2.1 ENE 9 11 5 6 1020.1 1020.0 0.0
11/10:30am 20.3 20.9 15.9 76 2.6 NNE 7 11 4 6 1020.4 1020.3 0.0
11/10:00am 20.2 20.7 15.6 75 2.7 NW 7 9 4 5 1020.7 1020.6 0.0
11/09:30am 19.8 20.7 16.1 79 2.2 NW 6 11 3 6 1020.8 1020.7 0.0

Latest Capital City Observations: Canberra | Sydney | Melbourne | Brisbane | Adelaide | Perth | Hobart | Darwin

Other formats

Comma delimited format used in spreadsheet applications
http://www.bom.gov.au/fwo/IDQ60901/IDQ60901.94584.axf

JavaScript Object Notation format (JSON) in row-major order
http://www.bom.gov.au/fwo/IDQ60901/IDQ60901.94584.json

Data quality

Most of these data are generated automatically and are frequently updated. Quality checks on data are not normally performed. It is possible for incorrect values to appear. Refer to information at About Latest Weather Observations and please check the disclaimer before using these data.